Time;durP1;ratioP1;P1;durP2;ratioP2;P2;SDS_P1;SDS_P2;PMS_P1;PMS_P2;Temp;Humidity;BMP_temperature;BMP_pressure;BME280_temperature;BME280_humidity;BME280_pressure;Samples;Min_cycle;Max_cycle;Signal;HPM_P1;HPM_P2
2021/12/20 00:01:37;;;;;;;;;;;;;;;3.23;94.40;101452.66;5055288;28;19929;-77
2021/12/20 00:04:03;;;;;;;;;;;;;;;3.19;94.46;101447.59;5055417;28;19975;-77
2021/12/20 00:06:28;;;;;;;;;;;;;;;3.13;94.56;101445.28;5052040;28;19960;-77
2021/12/20 00:08:53;;;;;;;;;;;;;;;3.22;94.40;101441.34;5033190;28;19920;-77
2021/12/20 00:11:18;;;;;;;;;;;;;;;3.24;94.05;101441.25;5056323;28;19920;-77
2021/12/20 00:13:44;;;;;;;;;;;;;;;3.19;94.45;101442.38;5056387;28;20389;-77
2021/12/20 00:16:09;;;;;;;;;;;;;;;3.19;94.35;101441.50;5056631;28;19949;-77
2021/12/20 00:18:34;;;;;;;;;;;;;;;3.22;94.63;101438.75;5054829;28;20245;-77
2021/12/20 00:20:59;;;;;;;;;;;;;;;3.15;94.79;101443.44;5055714;28;19925;-77
2021/12/20 00:23:25;;;;;;;;;;;;;;;3.24;94.64;101446.47;5055717;28;19929;-77
2021/12/20 00:25:50;;;;;;;;;;;;;;;3.24;94.38;101438.63;5056864;28;19926;-77
2021/12/20 00:28:17;;;;;;;;;;;;;;;3.26;94.10;101439.41;5054970;28;19928;-77
2021/12/20 00:30:42;;;;;;;;;;;;;;;3.21;94.25;101441.44;5043938;28;19921;-77
2021/12/20 00:33:07;;;;;;;;;;;;;;;3.20;94.20;101445.81;5045659;28;20061;-77
2021/12/20 00:35:32;;;;;;;;;;;;;;;3.16;94.75;101437.28;5035810;28;19954;-77
2021/12/20 00:40:42;;;;;;;;;;;;;;;3.18;94.93;101439.81;5042156;28;20360;-77
2021/12/20 00:43:07;;;;;;;;;;;;;;;3.21;94.91;101423.97;5047472;28;19972;-77
2021/12/20 00:45:35;;;;;;;;;;;;;;;3.24;94.61;101422.97;5044830;28;19927;-77
2021/12/20 00:48:00;;;;;;;;;;;;;;;3.23;94.90;101426.50;5036014;28;20607;-77
2021/12/20 00:50:26;;;;;;;;;;;;;;;3.28;94.51;101429.72;5044430;28;19916;-77
2021/12/20 00:52:52;;;;;;;;;;;;;;;3.31;94.36;101440.00;5048692;28;19932;-77
2021/12/20 00:55:19;;;;;;;;;;;;;;;3.26;94.71;101428.94;5041644;28;19928;-77
2021/12/20 00:57:47;;;;;;;;;;;;;;;3.23;94.54;101426.50;5052847;28;20018;-77
2021/12/20 01:00:15;;;;;;;;;;;;;;;3.31;94.30;101417.34;5043689;28;20412;-77
2021/12/20 01:02:40;;;;;;;;;;;;;;;3.28;94.40;101425.31;5034289;28;19992;-77
2021/12/20 01:05:06;;;;;;;;;;;;;;;3.25;94.48;101424.66;5039179;28;20067;-77
2021/12/20 01:07:31;;;;;;;;;;;;;;;3.24;94.88;101418.56;5045539;28;19956;-77
2021/12/20 01:09:59;;;;;;;;;;;;;;;3.24;94.72;101410.72;5035607;28;19921;-77
2021/12/20 01:12:28;;;;;;;;;;;;;;;3.29;94.84;101413.09;5018229;28;19927;-77
2021/12/20 01:14:58;;;;;;;;;;;;;;;3.27;94.63;101417.59;5052326;28;19920;-76
2021/12/20 01:17:24;;;;;;;;;;;;;;;3.32;94.35;101415.56;5043434;28;20006;-77
2021/12/20 01:19:49;;;;;;;;;;;;;;;3.31;94.74;101404.28;5048127;28;19992;-77
2021/12/20 01:22:14;;;;;;;;;;;;;;;3.34;94.53;101408.47;5048991;28;19996;-77
2021/12/20 01:24:39;;;;;;;;;;;;;;;3.37;94.27;101413.53;5047550;28;20020;-77
2021/12/20 01:27:05;;;;;;;;;;;;;;;3.34;94.36;101422.38;5033444;28;19920;-77
2021/12/20 01:29:30;;;;;;;;;;;;;;;3.33;94.80;101423.31;5042384;28;19932;-77
2021/12/20 01:31:55;;;;;;;;;;;;;;;3.37;94.68;101418.75;5035286;28;20306;-77
2021/12/20 01:34:21;;;;;;;;;;;;;;;3.38;94.51;101415.22;5047588;28;20294;-77
2021/12/20 01:36:46;;;;;;;;;;;;;;;3.38;94.73;101418.69;5051394;28;19988;-77
2021/12/20 01:39:11;;;;;;;;;;;;;;;3.41;94.72;101422.91;5042858;28;19929;-77
2021/12/20 01:41:41;;;;;;;;;;;;;;;3.45;94.38;101413.13;5043836;28;20294;-78
2021/12/20 01:44:06;;;;;;;;;;;;;;;3.44;94.26;101409.66;5042823;28;19927;-77
2021/12/20 01:46:32;;;;;;;;;;;;;;;3.44;94.40;101411.44;5043874;28;19921;-77
2021/12/20 01:48:58;;;;;;;;;;;;;;;3.39;94.65;101415.13;5050857;28;20001;-77
2021/12/20 01:51:47;;;;;;;;;;;;;;;3.42;94.66;101410.66;5050530;28;19932;-78
2021/12/20 01:54:12;;;;;;;;;;;;;;;3.45;94.60;101413.13;5050028;28;19921;-77
2021/12/20 01:56:41;;;;;;;;;;;;;;;3.46;94.70;101404.34;5051164;28;20043;-77
2021/12/20 01:59:07;;;;;;;;;;;;;;;3.45;94.51;101411.34;5033373;28;19925;-77
2021/12/20 02:01:32;;;;;;;;;;;;;;;3.47;94.46;101404.25;5050602;28;19927;-77
2021/12/20 02:04:01;;;;;;;;;;;;;;;3.50;94.20;101414.53;5049338;28;20321;-76
2021/12/20 02:06:34;;;;;;;;;;;;;;;3.46;94.40;101410.41;5032805;28;20337;-77
2021/12/20 02:09:01;;;;;;;;;;;;;;;3.47;94.84;101409.47;5049008;28;19925;-78
2021/12/20 02:11:26;;;;;;;;;;;;;;;3.54;94.23;101410.84;5037877;28;19921;-77
2021/12/20 02:13:51;;;;;;;;;;;;;;;3.53;94.05;101406.53;5045543;28;19940;-77
2021/12/20 02:16:18;;;;;;;;;;;;;;;3.49;94.24;101407.63;5050136;28;19962;-78
2021/12/20 02:18:43;;;;;;;;;;;;;;;3.47;94.46;101406.03;5045134;28;19925;-77
2021/12/20 02:21:08;;;;;;;;;;;;;;;3.52;94.45;101411.84;5032476;28;19920;-77
2021/12/20 02:23:33;;;;;;;;;;;;;;;3.53;94.57;101414.38;5044116;28;19924;-77
2021/12/20 02:26:00;;;;;;;;;;;;;;;3.52;94.25;101410.06;5043472;28;19940;-77
2021/12/20 02:28:25;;;;;;;;;;;;;;;3.54;94.30;101412.63;5047296;28;20128;-77
2021/12/20 02:38:58;;;;;;;;;;;;;;;3.59;94.32;101408.81;5049935;28;20057;-77
2021/12/20 02:41:27;;;;;;;;;;;;;;;3.57;94.28;101409.81;5046358;28;19952;-77
2021/12/20 02:43:56;;;;;;;;;;;;;;;3.54;94.41;101396.91;5048376;28;19920;-77
2021/12/20 02:49:05;;;;;;;;;;;;;;;3.56;94.07;101398.53;5049982;28;19925;-77
2021/12/20 02:51:30;;;;;;;;;;;;;;;3.63;93.90;101399.03;5050349;28;19932;-77
2021/12/20 02:53:56;;;;;;;;;;;;;;;3.65;93.95;101397.19;5050203;28;20382;-77
2021/12/20 02:56:22;;;;;;;;;;;;;;;3.64;93.87;101395.47;5049926;28;19928;-77
2021/12/20 02:58:47;;;;;;;;;;;;;;;3.63;93.62;101385.94;5036494;28;19925;-77
2021/12/20 03:01:13;;;;;;;;;;;;;;;3.61;93.85;101396.50;5044283;28;19984;-78
2021/12/20 03:03:38;;;;;;;;;;;;;;;3.63;93.70;101398.19;5036694;28;20333;-77
2021/12/20 03:06:36;;;;;;;;;;;;;;;3.55;94.12;101393.38;5031994;28;19927;-77
2021/12/20 03:09:01;;;;;;;;;;;;;;;3.48;94.56;101400.72;4982336;28;19920;-77
2021/12/20 03:11:27;;;;;;;;;;;;;;;3.59;94.12;101395.72;5045591;28;19921;-77
2021/12/20 03:13:57;;;;;;;;;;;;;;;3.56;94.18;101387.22;5050047;28;20419;-77
2021/12/20 03:16:22;;;;;;;;;;;;;;;3.56;94.35;101395.91;5050130;28;19935;-77
2021/12/20 03:18:47;;;;;;;;;;;;;;;3.56;94.30;101392.44;5046324;28;19925;-77
2021/12/20 03:21:12;;;;;;;;;;;;;;;3.65;93.91;101388.47;5047670;28;20395;-77
2021/12/20 03:23:38;;;;;;;;;;;;;;;3.59;93.97;101392.28;5037452;28;19927;-77
2021/12/20 03:26:03;;;;;;;;;;;;;;;3.60;94.35;101393.97;5049454;28;19925;-77
2021/12/20 03:28:28;;;;;;;;;;;;;;;3.59;94.45;101393.09;5049193;28;20003;-77
2021/12/20 03:30:53;;;;;;;;;;;;;;;3.59;94.07;101393.09;5032435;28;20347;-77
2021/12/20 03:33:19;;;;;;;;;;;;;;;3.57;94.26;101379.28;5042919;28;19955;-77
2021/12/20 03:35:44;;;;;;;;;;;;;;;3.60;94.12;101391.38;5044427;28;19924;-77
2021/12/20 03:38:09;;;;;;;;;;;;;;;3.53;94.37;101387.41;5046751;28;19979;-77
2021/12/20 03:40:36;;;;;;;;;;;;;;;3.50;94.73;101379.72;5051058;28;19920;-77
2021/12/20 03:43:02;;;;;;;;;;;;;;;3.58;94.41;101386.22;5048450;28;19982;-78
2021/12/20 03:45:27;;;;;;;;;;;;;;;3.59;94.01;101393.09;5051764;28;20373;-77
2021/12/20 03:47:52;;;;;;;;;;;;;;;3.47;94.56;101390.34;5041697;28;19928;-77
2021/12/20 03:50:18;;;;;;;;;;;;;;;3.38;95.31;101389.94;5049922;28;19921;-77
2021/12/20 03:52:43;;;;;;;;;;;;;;;3.40;95.30;101384.59;5046981;28;19928;-77
2021/12/20 03:55:10;;;;;;;;;;;;;;;3.53;94.44;101385.63;5039398;28;19968;-78
2021/12/20 03:57:35;;;;;;;;;;;;;;;3.57;94.02;101394.97;5032656;28;19927;-77
2021/12/20 04:00:03;;;;;;;;;;;;;;;3.56;93.82;101395.06;5049980;28;20003;-77
2021/12/20 04:02:29;;;;;;;;;;;;;;;3.58;93.74;101377.53;5048793;28;19921;-77
2021/12/20 04:04:54;;;;;;;;;;;;;;;3.50;93.89;101375.31;5031677;28;19940;-77
2021/12/20 04:07:20;;;;;;;;;;;;;;;3.50;94.14;101377.94;5049498;28;20373;-77
2021/12/20 04:09:45;;;;;;;;;;;;;;;3.53;93.81;101380.41;5049219;28;19927;-77
2021/12/20 04:12:10;;;;;;;;;;;;;;;3.54;93.92;101376.84;5049724;28;19975;-77
2021/12/20 04:14:35;;;;;;;;;;;;;;;3.56;93.70;101387.22;5049782;28;19960;-77
2021/12/20 04:17:00;;;;;;;;;;;;;;;3.52;93.96;101389.16;5043872;28;19921;-77
2021/12/20 04:19:26;;;;;;;;;;;;;;;3.48;93.75;101392.88;5026129;28;19932;-77
2021/12/20 04:21:51;;;;;;;;;;;;;;;3.50;94.23;101398.00;5048552;28;19920;-77
2021/12/20 04:24:16;;;;;;;;;;;;;;;3.48;94.13;101387.66;5047730;28;19921;-77
2021/12/20 04:26:41;;;;;;;;;;;;;;;3.47;94.24;101390.34;5049203;28;19927;-77
2021/12/20 04:29:06;;;;;;;;;;;;;;;3.49;94.13;101397.16;5053032;28;19943;-77
2021/12/20 04:31:35;;;;;;;;;;;;;;;3.53;94.03;101398.69;5052847;28;19920;-77
2021/12/20 04:34:00;;;;;;;;;;;;;;;3.52;94.06;101398.78;5053416;28;20000;-77
2021/12/20 04:36:25;;;;;;;;;;;;;;;3.46;94.48;101399.13;5038694;28;19917;-77
2021/12/20 04:38:51;;;;;;;;;;;;;;;3.48;94.55;101397.25;5033924;28;19921;-77
2021/12/20 04:41:16;;;;;;;;;;;;;;;3.50;93.98;101403.25;5048486;28;19921;-77
2021/12/20 04:43:41;;;;;;;;;;;;;;;3.48;94.03;101399.84;5027709;28;19921;-77
2021/12/20 04:46:06;;;;;;;;;;;;;;;3.51;93.99;101399.72;5035577;28;19920;-77
2021/12/20 04:48:32;;;;;;;;;;;;;;;3.51;93.80;101400.56;5053268;28;19920;-77
2021/12/20 04:50:57;;;;;;;;;;;;;;;3.47;94.37;101396.41;5052861;28;19974;-77
2021/12/20 04:53:22;;;;;;;;;;;;;;;3.49;94.40;101394.56;5051268;28;19916;-77
2021/12/20 04:55:47;;;;;;;;;;;;;;;3.51;93.79;101394.47;5052851;28;19920;-77
2021/12/20 04:58:13;;;;;;;;;;;;;;;3.53;94.15;101400.47;5052269;28;19932;-78
2021/12/20 05:00:40;;;;;;;;;;;;;;;3.49;94.09;101396.34;5051930;28;20335;-77
2021/12/20 05:03:06;;;;;;;;;;;;;;;3.47;94.40;101409.47;5053205;28;19917;-78
2021/12/20 05:05:32;;;;;;;;;;;;;;;3.44;94.58;101409.66;5052880;28;19920;-77
2021/12/20 05:07:58;;;;;;;;;;;;;;;3.43;94.49;101405.34;5039783;28;19936;-77
2021/12/20 05:10:33;;;;;;;;;;;;;;;3.33;95.33;101399.78;5045380;28;20203;-77
2021/12/20 05:13:00;;;;;;;;;;;;;;;3.39;94.88;101406.47;5045946;28;19949;-77
2021/12/20 05:15:27;;;;;;;;;;;;;;;3.43;94.88;101402.72;5052490;28;19975;-77
2021/12/20 05:17:52;;;;;;;;;;;;;;;3.47;94.71;101400.81;5033987;28;19974;-77
2021/12/20 05:20:18;;;;;;;;;;;;;;;3.47;94.66;101396.41;5052109;28;20127;-77
2021/12/20 05:22:43;;;;;;;;;;;;;;;3.46;94.81;101399.97;5051170;28;19964;-77
2021/12/20 05:25:09;;;;;;;;;;;;;;;3.50;94.30;101405.84;5052196;28;20508;-77
2021/12/20 05:27:34;;;;;;;;;;;;;;;3.47;94.35;101400.81;5052348;28;20308;-77
2021/12/20 05:30:00;;;;;;;;;;;;;;;3.36;94.71;101412.69;5034133;28;19920;-77
2021/12/20 05:32:25;;;;;;;;;;;;;;;3.39;94.72;101406.47;5047226;28;20024;-77
2021/12/20 05:34:51;;;;;;;;;;;;;;;3.42;94.84;101406.28;5033798;28;19927;-77
2021/12/20 05:37:16;;;;;;;;;;;;;;;3.47;94.43;101406.03;5051226;28;19916;-77
2021/12/20 05:39:42;;;;;;;;;;;;;;;3.48;94.55;101403.34;5051408;28;19952;-77
2021/12/20 05:42:07;;;;;;;;;;;;;;;3.51;94.44;101408.41;5043538;28;20357;-77
2021/12/20 05:44:32;;;;;;;;;;;;;;;3.49;94.11;101410.25;5051275;28;19920;-77
2021/12/20 05:46:57;;;;;;;;;;;;;;;3.40;94.50;101405.50;5031394;28;19921;-78
2021/12/20 05:49:23;;;;;;;;;;;;;;;3.40;94.81;101413.34;5032332;28;19929;-77
2021/12/20 05:51:48;;;;;;;;;;;;;;;3.46;94.50;101423.50;5030591;28;19929;-77
2021/12/20 05:54:14;;;;;;;;;;;;;;;3.46;94.54;101414.81;5031202;28;20004;-77
2021/12/20 05:56:39;;;;;;;;;;;;;;;3.47;94.67;101414.72;5031433;28;20485;-77
2021/12/20 05:59:04;;;;;;;;;;;;;;;3.48;94.31;101419.03;5031945;28;19932;-76
2021/12/20 06:01:29;;;;;;;;;;;;;;;3.49;94.73;101420.72;5030359;28;19967;-77
2021/12/20 06:03:54;;;;;;;;;;;;;;;3.50;94.54;101422.38;5025042;28;19944;-77
2021/12/20 06:06:20;;;;;;;;;;;;;;;3.52;94.35;101427.53;5028273;28;20282;-77
2021/12/20 06:08:45;;;;;;;;;;;;;;;3.50;94.23;101430.22;5024328;28;20022;-77
2021/12/20 06:11:10;;;;;;;;;;;;;;;3.50;94.38;101425.00;5031329;28;20032;-77
2021/12/20 06:13:35;;;;;;;;;;;;;;;3.43;94.52;101420.19;5031453;28;19928;-77
2021/12/20 06:16:00;;;;;;;;;;;;;;;3.42;94.50;101424.59;5029521;28;20337;-77
2021/12/20 06:18:26;;;;;;;;;;;;;;;3.44;94.78;101424.50;5030540;28;19925;-76
2021/12/20 06:20:51;;;;;;;;;;;;;;;3.43;94.45;101431.50;5030810;28;20011;-77
2021/12/20 06:23:16;;;;;;;;;;;;;;;3.40;94.61;101429.03;5030064;28;20521;-77
2021/12/20 06:25:41;;;;;;;;;;;;;;;3.42;94.43;101431.59;5031226;28;19921;-77
2021/12/20 06:28:06;;;;;;;;;;;;;;;3.40;94.58;101427.28;5030483;28;19921;-77
2021/12/20 06:30:32;;;;;;;;;;;;;;;3.43;94.33;101431.50;5029657;28;19928;-77
2021/12/20 06:32:57;;;;;;;;;;;;;;;3.40;94.70;101431.66;5031281;28;19928;-78
2021/12/20 06:35:22;;;;;;;;;;;;;;;3.30;94.97;101428.69;5031054;28;20341;-78
2021/12/20 06:37:58;;;;;;;;;;;;;;;3.33;94.68;101432.91;5031106;28;19928;-77
2021/12/20 06:40:23;;;;;;;;;;;;;;;3.37;94.79;101431.84;5029407;28;19928;-77
2021/12/20 06:42:49;;;;;;;;;;;;;;;3.42;94.80;101435.03;5030707;28;20314;-77
2021/12/20 06:45:14;;;;;;;;;;;;;;;3.43;94.51;101438.50;5020490;28;20386;-77
2021/12/20 06:47:39;;;;;;;;;;;;;;;3.35;94.41;101431.91;5031280;28;19925;-77
2021/12/20 06:50:04;;;;;;;;;;;;;;;3.36;94.59;101444.06;5049735;28;19920;-77
2021/12/20 06:52:30;;;;;;;;;;;;;;;3.43;94.27;101454.19;5050103;28;19921;-77
2021/12/20 06:54:55;;;;;;;;;;;;;;;3.35;94.61;101447.59;5051299;28;19921;-77
2021/12/20 06:57:20;;;;;;;;;;;;;;;3.39;94.47;101453.50;5029666;28;20332;-77
2021/12/20 06:59:45;;;;;;;;;;;;;;;3.36;94.60;101445.81;5042035;28;20006;-77
2021/12/20 07:02:11;;;;;;;;;;;;;;;3.33;94.64;101444.22;5046200;28;19921;-77
2021/12/20 07:04:36;;;;;;;;;;;;;;;3.33;94.91;101454.66;5049956;28;19921;-77
2021/12/20 07:07:01;;;;;;;;;;;;;;;3.29;94.96;101447.06;5050269;28;20320;-77
2021/12/20 07:09:26;;;;;;;;;;;;;;;3.21;95.36;101451.88;5049446;28;20044;-77
2021/12/20 07:11:52;;;;;;;;;;;;;;;3.16;95.35;101462.56;5031695;28;19966;-77
2021/12/20 07:14:17;;;;;;;;;;;;;;;3.18;95.20;101465.97;5050183;28;19975;-77
2021/12/20 07:16:42;;;;;;;;;;;;;;;3.16;95.34;101466.03;5035653;28;19921;-77
2021/12/20 07:19:08;;;;;;;;;;;;;;;3.10;95.61;101468.97;5049983;28;19929;-78
2021/12/20 07:21:33;;;;;;;;;;;;;;;3.09;95.45;101464.66;5050354;28;19927;-77
2021/12/20 07:23:58;;;;;;;;;;;;;;;3.08;95.65;101468.22;5050613;28;20419;-77
2021/12/20 07:26:23;;;;;;;;;;;;;;;3.07;95.89;101468.28;5048998;28;20349;-77
2021/12/20 07:28:49;;;;;;;;;;;;;;;3.08;95.57;101470.81;5049924;28;19982;-77
2021/12/20 07:31:15;;;;;;;;;;;;;;;3.00;96.30;101466.91;5031552;28;20045;-77
2021/12/20 07:33:40;;;;;;;;;;;;;;;3.03;96.06;101469.34;5046568;28;19932;-76
2021/12/20 07:36:06;;;;;;;;;;;;;;;3.11;95.29;101475.88;5046011;28;19921;-77
2021/12/20 07:38:31;;;;;;;;;;;;;;;3.06;95.43;101470.06;5049929;28;19934;-77
2021/12/20 07:40:57;;;;;;;;;;;;;;;2.99;95.77;101481.75;5036819;28;19928;-77
2021/12/20 07:43:22;;;;;;;;;;;;;;;3.01;95.81;101482.53;5039335;28;19927;-77
2021/12/20 07:45:48;;;;;;;;;;;;;;;3.05;95.50;101475.34;5045538;28;20400;-78
2021/12/20 07:48:17;;;;;;;;;;;;;;;3.07;96.25;101479.56;5041655;28;20092;-77
2021/12/20 07:50:43;;;;;;;;;;;;;;;3.07;96.10;101468.28;5030498;28;19925;-77
2021/12/20 07:53:08;;;;;;;;;;;;;;;3.10;95.96;101474.19;5040192;28;19967;-77
2021/12/20 07:55:34;;;;;;;;;;;;;;;3.10;95.89;101484.66;5046519;28;19924;-77
2021/12/20 07:57:59;;;;;;;;;;;;;;;3.07;95.80;101479.56;5045395;28;20435;-77
2021/12/20 08:00:25;;;;;;;;;;;;;;;3.11;96.09;101475.88;5033381;28;19967;-78
2021/12/20 08:02:51;;;;;;;;;;;;;;;3.12;96.11;101477.59;5034006;28;19931;-77
2021/12/20 08:05:19;;;;;;;;;;;;;;;3.17;95.70;101487.78;5042301;28;19925;-77
2021/12/20 08:07:45;;;;;;;;;;;;;;;3.22;95.55;101490.16;5048899;28;19921;-77
2021/12/20 08:10:11;;;;;;;;;;;;;;;3.24;95.98;101489.13;5049412;28;20394;-77
2021/12/20 08:12:36;;;;;;;;;;;;;;;3.28;95.64;101495.06;5050441;28;20007;-77
2021/12/20 08:15:02;;;;;;;;;;;;;;;3.29;95.74;101491.50;5048203;28;19920;-77
2021/12/20 08:17:28;;;;;;;;;;;;;;;3.34;95.81;101492.13;5048486;28;19921;-77
2021/12/20 08:19:54;;;;;;;;;;;;;;;3.42;95.83;101495.16;5045805;28;20353;-78
2021/12/20 08:22:24;;;;;;;;;;;;;;;3.45;95.85;101499.41;5038382;28;19931;-77
2021/12/20 08:24:49;;;;;;;;;;;;;;;3.55;95.77;101488.38;5043291;28;19917;-78
2021/12/20 08:27:14;;;;;;;;;;;;;;;3.63;95.33;101497.56;5050293;28;19978;-77
2021/12/20 08:29:39;;;;;;;;;;;;;;;3.63;95.26;101501.03;5041368;28;19980;-78
2021/12/20 08:32:04;;;;;;;;;;;;;;;3.63;94.86;101508.03;5046649;28;19998;-78
2021/12/20 08:34:31;;;;;;;;;;;;;;;3.61;95.12;101505.50;5044771;28;20414;-77
2021/12/20 08:36:56;;;;;;;;;;;;;;;3.55;94.51;101500.56;5037733;28;20305;-77
2021/12/20 08:39:21;;;;;;;;;;;;;;;3.48;94.99;101510.56;5044046;28;19933;-77
2021/12/20 08:41:46;;;;;;;;;;;;;;;3.49;95.07;101506.16;5048613;28;19921;-77
2021/12/20 08:44:12;;;;;;;;;;;;;;;3.53;95.19;101521.59;5047744;28;20420;-78
2021/12/20 08:46:37;;;;;;;;;;;;;;;3.43;94.48;101509.09;5031745;28;20071;-77
2021/12/20 08:49:02;;;;;;;;;;;;;;;3.42;95.18;101513.47;5046709;28;19983;-77
2021/12/20 08:51:28;;;;;;;;;;;;;;;3.49;95.25;101517.44;5034494;28;19921;-77
2021/12/20 08:53:53;;;;;;;;;;;;;;;3.47;95.38;101514.06;5046613;28;19999;-77
2021/12/20 08:56:19;;;;;;;;;;;;;;;3.52;95.26;101506.81;5037625;28;19929;-77
2021/12/20 08:58:45;;;;;;;;;;;;;;;3.40;94.42;101508.31;5035887;28;19931;-77
2021/12/20 09:01:11;;;;;;;;;;;;;;;3.40;94.93;101516.16;5027693;28;20518;-77
2021/12/20 09:03:36;;;;;;;;;;;;;;;3.34;94.80;101524.34;5041172;28;19932;-77
2021/12/20 09:06:01;;;;;;;;;;;;;;;3.36;95.42;101519.88;5043457;28;19960;-77
2021/12/20 09:08:28;;;;;;;;;;;;;;;3.29;95.02;101517.66;5043533;28;20381;-77
2021/12/20 09:10:53;;;;;;;;;;;;;;;3.26;95.29;101536.13;5038964;28;19963;-77
2021/12/20 09:13:19;;;;;;;;;;;;;;;3.26;95.22;101531.72;5046637;28;19964;-77
2021/12/20 09:15:44;;;;;;;;;;;;;;;3.28;95.57;101537.72;5042105;28;20274;-77
2021/12/20 09:18:10;;;;;;;;;;;;;;;3.16;95.35;101526.13;5044791;28;19929;-78
2021/12/20 09:20:36;;;;;;;;;;;;;;;3.17;95.77;101532.19;5045618;28;19975;-77
2021/12/20 09:23:06;;;;;;;;;;;;;;;3.26;95.72;101536.97;5044127;28;19921;-77
2021/12/20 09:25:32;;;;;;;;;;;;;;;3.33;95.79;101538.31;5050040;28;20004;-77
2021/12/20 09:27:58;;;;;;;;;;;;;;;3.32;95.33;101535.81;5046049;28;19920;-77
2021/12/20 09:30:24;;;;;;;;;;;;;;;3.26;95.68;101529.13;5043661;28;20412;-77
2021/12/20 09:32:50;;;;;;;;;;;;;;;3.33;95.67;101534.88;5029429;28;20023;-77
2021/12/20 09:35:16;;;;;;;;;;;;;;;3.26;95.64;101538.72;5040526;28;20348;-77
2021/12/20 09:37:41;;;;;;;;;;;;;;;3.25;95.81;101535.28;5044102;28;20374;-77
2021/12/20 09:40:08;;;;;;;;;;;;;;;3.23;96.18;101538.91;5034371;28;19975;-77
2021/12/20 09:42:33;;;;;;;;;;;;;;;3.29;96.37;101541.19;5031636;28;20455;-78
2021/12/20 09:45:00;;;;;;;;;;;;;;;3.36;96.18;101543.41;5028659;28;19928;-77
2021/12/20 09:47:29;;;;;;;;;;;;;;;3.37;95.47;101545.09;5025575;28;19952;-79
2021/12/20 09:49:54;;;;;;;;;;;;;;;3.30;95.97;101551.56;5044353;28;19920;-77
2021/12/20 09:52:20;;;;;;;;;;;;;;;3.48;95.93;101546.28;5042530;28;20411;-77
2021/12/20 09:54:45;;;;;;;;;;;;;;;3.58;95.60;101544.91;5042067;28;19928;-77
2021/12/20 09:57:12;;;;;;;;;;;;;;;3.63;94.97;101547.28;5038142;28;19929;-78
2021/12/20 09:59:38;;;;;;;;;;;;;;;3.65;95.38;101534.94;5038387;28;19940;-77
2021/12/20 10:02:06;;;;;;;;;;;;;;;3.72;95.46;101544.13;5041060;28;19978;-78
2021/12/20 10:04:31;;;;;;;;;;;;;;;3.86;95.32;101539.00;5043681;28;19929;-77
2021/12/20 10:06:59;;;;;;;;;;;;;;;3.93;93.29;101537.75;5046845;28;20401;-77
2021/12/20 10:09:31;;;;;;;;;;;;;;;3.93;92.60;101539.50;5045715;28;20036;-77
2021/12/20 10:12:15;;;;;;;;;;;;;;;3.95;91.75;101541.13;5027727;28;19921;-77
2021/12/20 10:14:57;;;;;;;;;;;;;;;4.11;93.39;101533.28;5037158;28;19974;-77
2021/12/20 10:17:26;;;;;;;;;;;;;;;4.18;92.35;101529.38;5039001;28;19963;-76
2021/12/20 10:19:51;;;;;;;;;;;;;;;4.21;91.69;101534.44;5022251;28;19943;-76
2021/12/20 10:22:21;;;;;;;;;;;;;;;4.27;91.16;101525.41;5044685;28;20421;-76
2021/12/20 10:24:46;;;;;;;;;;;;;;;4.40;92.48;101529.00;5046097;28;20047;-76
2021/12/20 10:27:26;;;;;;;;;;;;;;;4.48;90.22;101525.94;5044735;28;20024;-76
2021/12/20 10:29:51;;;;;;;;;;;;;;;4.60;90.13;101513.91;5044985;28;19925;-76
2021/12/20 10:32:36;;;;;;;;;;;;;;;4.68;90.02;101511.72;5039363;28;19928;-76
2021/12/20 10:35:01;;;;;;;;;;;;;;;4.73;87.89;101511.44;5038318;28;19928;-76
2021/12/20 10:37:38;;;;;;;;;;;;;;;4.79;86.86;101511.94;5042675;28;19929;-76
2021/12/20 10:40:03;;;;;;;;;;;;;;;4.82;86.77;101511.75;5043766;28;20362;-76
2021/12/20 10:42:30;;;;;;;;;;;;;;;4.86;85.24;101507.16;5044241;28;19951;-76
2021/12/20 10:45:13;;;;;;;;;;;;;;;4.90;84.87;101509.50;5042213;28;19932;-76
2021/12/20 10:47:38;;;;;;;;;;;;;;;5.01;86.58;101506.25;5034186;28;20073;-76
2021/12/20 10:50:24;;;;;;;;;;;;;;;5.10;86.80;101507.47;5045311;28;20479;-76
2021/12/20 10:52:49;;;;;;;;;;;;;;;5.22;83.67;101512.00;5037641;28;19929;-76
2021/12/20 10:55:47;;;;;;;;;;;;;;;5.38;83.07;101511.88;5045626;28;20336;-76
2021/12/20 10:58:20;;;;;;;;;;;;;;;5.40;81.87;101511.81;4994946;28;19929;-76
2021/12/20 11:00:46;;;;;;;;;;;;;;;5.31;82.28;101510.56;5038452;28;19968;-76
2021/12/20 11:03:28;;;;;;;;;;;;;;;5.30;81.24;101512.38;5042112;28;20401;-76
2021/12/20 11:06:25;;;;;;;;;;;;;;;5.44;81.19;101513.31;5046211;28;20381;-76
2021/12/20 11:09:05;;;;;;;;;;;;;;;5.46;79.47;101508.81;5044983;28;21810;-76
2021/12/20 11:11:35;;;;;;;;;;;;;;;5.54;79.90;101510.00;5039021;28;19936;-76
2021/12/20 11:14:01;;;;;;;;;;;;;;;5.52;79.59;101503.19;5045537;28;19921;-75
2021/12/20 11:16:31;;;;;;;;;;;;;;;5.47;78.56;101502.63;5038289;28;19970;-75
2021/12/20 11:19:19;;;;;;;;;;;;;;;5.59;79.01;101494.00;5039439;28;19935;-76
2021/12/20 11:22:04;;;;;;;;;;;;;;;5.62;77.22;101493.78;5032445;28;20439;-75
2021/12/20 11:24:35;;;;;;;;;;;;;;;5.70;78.03;101493.34;5042905;28;19921;-76
2021/12/20 11:27:01;;;;;;;;;;;;;;;5.56;76.32;101491.56;5039341;28;19921;-76
2021/12/20 11:29:27;;;;;;;;;;;;;;;5.63;76.79;101500.72;5040855;28;19935;-76
2021/12/20 11:31:53;;;;;;;;;;;;;;;5.73;77.26;101493.13;5029282;28;19920;-76
2021/12/20 11:34:18;;;;;;;;;;;;;;;5.79;77.03;101497.97;5045681;28;19921;-76
2021/12/20 11:36:43;;;;;;;;;;;;;;;5.73;75.01;101490.50;5027518;28;19921;-75
2021/12/20 11:39:09;;;;;;;;;;;;;;;5.78;75.52;101493.69;5034732;28;19944;-75
2021/12/20 11:41:34;;;;;;;;;;;;;;;5.90;76.41;101497.31;5027289;28;19928;-75
2021/12/20 11:44:01;;;;;;;;;;;;;;;5.95;76.47;101501.34;5038207;28;19925;-76
2021/12/20 11:46:30;;;;;;;;;;;;;;;5.87;74.73;101489.63;5046234;28;20348;-76
2021/12/20 11:48:56;;;;;;;;;;;;;;;6.01;74.84;101494.88;5036808;28;20473;-75
2021/12/20 11:51:21;;;;;;;;;;;;;;;6.01;74.63;101494.03;5036921;28;20023;-75
2021/12/20 11:53:47;;;;;;;;;;;;;;;6.14;74.86;101494.91;5040582;28;20331;-76
2021/12/20 11:56:12;;;;;;;;;;;;;;;6.10;74.26;101499.53;5038335;28;19939;-75
2021/12/20 11:58:44;;;;;;;;;;;;;;;6.24;74.03;101501.25;5043498;28;19960;-75
2021/12/20 12:01:18;;;;;;;;;;;;;;;6.23;72.37;101494.31;5046020;28;19925;-76
2021/12/20 12:03:54;;;;;;;;;;;;;;;6.18;72.25;101498.19;5041463;28;19921;-76
2021/12/20 12:06:24;;;;;;;;;;;;;;;6.16;73.17;101496.50;5035689;28;19936;-76
2021/12/20 12:08:49;;;;;;;;;;;;;;;6.09;73.61;101497.84;5042433;28;19956;-76
2021/12/20 12:11:14;;;;;;;;;;;;;;;6.24;71.83;101495.16;5029744;28;19929;-75
2021/12/20 12:13:50;;;;;;;;;;;;;;;6.21;71.01;101495.38;5042912;28;19935;-77
2021/12/20 12:18:52;;;;;;;;;;;;;;;6.19;72.65;101490.22;5047934;28;19948;-77
2021/12/20 12:21:32;;;;;;;;;;;;;;;6.02;71.82;101493.91;5047310;28;21223;-77
2021/12/20 12:23:58;;;;;;;;;;;;;;;6.02;72.36;101487.84;5037115;28;19947;-76
2021/12/20 12:26:30;;;;;;;;;;;;;;;6.12;72.56;101488.91;5048266;28;20003;-77
2021/12/20 12:28:56;;;;;;;;;;;;;;;6.04;72.53;101486.78;5031160;28;20139;-76
2021/12/20 12:31:21;;;;;;;;;;;;;;;6.16;72.51;101488.63;5048175;28;20034;-76
2021/12/20 12:33:47;;;;;;;;;;;;;;;6.07;72.09;101486.59;5043786;28;20324;-76
2021/12/20 12:36:18;;;;;;;;;;;;;;;6.12;72.44;101468.75;5048290;28;20428;-76
2021/12/20 12:38:46;;;;;;;;;;;;;;;6.15;73.03;101481.69;5042256;28;20370;-77
2021/12/20 12:41:19;;;;;;;;;;;;;;;5.94;70.73;101476.03;5034371;28;20228;-77
2021/12/20 12:43:53;;;;;;;;;;;;;;;6.07;71.12;101472.63;5049036;28;19921;-76
2021/12/20 12:46:39;;;;;;;;;;;;;;;6.09;71.77;101470.75;5037375;28;20600;-76
2021/12/20 12:49:23;;;;;;;;;;;;;;;6.07;70.77;101472.63;5038387;28;19921;-77
2021/12/20 12:51:59;;;;;;;;;;;;;;;6.07;71.51;101462.13;5032387;28;20386;-76
2021/12/20 12:54:33;;;;;;;;;;;;;;;6.04;69.78;101470.22;5032082;28;20378;-76
2021/12/20 12:57:07;;;;;;;;;;;;;;;5.94;70.23;101464.72;5031459;28;19944;-76
2021/12/20 12:59:32;;;;;;;;;;;;;;;5.94;71.13;101459.47;5028088;28;19925;-76
2021/12/20 13:01:58;;;;;;;;;;;;;;;6.08;70.57;101462.03;5033397;28;19917;-76
2021/12/20 13:04:43;;;;;;;;;;;;;;;6.12;71.65;101462.66;5032883;28;19963;-76